sensor_id;sensor_type;location;lat;lon;timestamp;pressure;altitude;pressure_sealevel;temperature;humidity
53011;BME280;42803;55.762;38.084;2023-04-25T00:00:29;99372.31;;;9.51;66.83
53011;BME280;42803;55.762;38.084;2023-04-25T00:02:59;99367.22;;;9.52;67.96
53011;BME280;42803;55.762;38.084;2023-04-25T00:05:28;99366.41;;;9.53;68.23
53011;BME280;42803;55.762;38.084;2023-04-25T00:07:58;99360.84;;;9.71;68.39
53011;BME280;42803;55.762;38.084;2023-04-25T00:10:27;99357.63;;;9.63;67.61
53011;BME280;42803;55.762;38.084;2023-04-25T00:12:56;99363.50;;;9.61;68.49
53011;BME280;42803;55.762;38.084;2023-04-25T00:15:25;99362.19;;;9.66;69.21
53011;BME280;42803;55.762;38.084;2023-04-25T00:17:55;99356.50;;;9.93;68.74
53011;BME280;42803;55.762;38.084;2023-04-25T00:20:26;99365.91;;;10.03;68.78
53011;BME280;42803;55.762;38.084;2023-04-25T00:22:55;99355.84;;;9.96;69.04
53011;BME280;42803;55.762;38.084;2023-04-25T00:25:24;99355.84;;;9.96;69.89
53011;BME280;42803;55.762;38.084;2023-04-25T00:27:53;99348.38;;;10.00;69.93
53011;BME280;42803;55.762;38.084;2023-04-25T00:30:22;99345.53;;;10.09;69.89
53011;BME280;42803;55.762;38.084;2023-04-25T00:32:51;99347.31;;;9.98;69.47
53011;BME280;42803;55.762;38.084;2023-04-25T00:35:20;99344.84;;;10.00;69.86
53011;BME280;42803;55.762;38.084;2023-04-25T00:37:51;99354.91;;;9.95;69.79
53011;BME280;42803;55.762;38.084;2023-04-25T00:40:21;99341.63;;;9.81;70.03
53011;BME280;42803;55.762;38.084;2023-04-25T00:42:51;99350.41;;;9.71;70.10
53011;BME280;42803;55.762;38.084;2023-04-25T00:45:21;99341.50;;;9.57;70.22
53011;BME280;42803;55.762;38.084;2023-04-25T00:47:50;99344.06;;;9.67;71.86
53011;BME280;42803;55.762;38.084;2023-04-25T00:50:19;99343.63;;;9.73;71.53
53011;BME280;42803;55.762;38.084;2023-04-25T00:52:52;99341.91;;;9.62;70.82
53011;BME280;42803;55.762;38.084;2023-04-25T00:55:21;99344.66;;;9.53;71.32
53011;BME280;42803;55.762;38.084;2023-04-25T00:57:50;99345.69;;;9.77;71.48
53011;BME280;42803;55.762;38.084;2023-04-25T01:00:20;99343.41;;;9.70;70.31
53011;BME280;42803;55.762;38.084;2023-04-25T01:02:49;99335.97;;;9.86;70.97
53011;BME280;42803;55.762;38.084;2023-04-25T01:05:19;99332.88;;;9.80;69.91
53011;BME280;42803;55.762;38.084;2023-04-25T01:07:48;99333.44;;;9.76;70.03
53011;BME280;42803;55.762;38.084;2023-04-25T01:10:19;99331.84;;;9.78;69.60
53011;BME280;42803;55.762;38.084;2023-04-25T01:12:48;99332.31;;;9.84;68.68
53011;BME280;42803;55.762;38.084;2023-04-25T01:15:17;99322.38;;;9.90;68.15
53011;BME280;42803;55.762;38.084;2023-04-25T01:17:46;99316.03;;;9.98;68.16
53011;BME280;42803;55.762;38.084;2023-04-25T01:20:17;99318.09;;;10.02;68.30
53011;BME280;42803;55.762;38.084;2023-04-25T01:22:47;99319.69;;;10.12;68.48
53011;BME280;42803;55.762;38.084;2023-04-25T01:25:19;99309.28;;;10.12;68.07
53011;BME280;42803;55.762;38.084;2023-04-25T01:27:49;99312.44;;;10.08;67.92
53011;BME280;42803;55.762;38.084;2023-04-25T01:30:18;99314.34;;;10.11;67.58
53011;BME280;42803;55.762;38.084;2023-04-25T01:32:47;99318.34;;;10.17;67.66
53011;BME280;42803;55.762;38.084;2023-04-25T01:35:16;99316.63;;;10.18;68.42
53011;BME280;42803;55.762;38.084;2023-04-25T01:37:47;99311.00;;;10.23;69.34
53011;BME280;42803;55.762;38.084;2023-04-25T01:40:17;99303.19;;;10.35;68.56
53011;BME280;42803;55.762;38.084;2023-04-25T01:42:47;99305.81;;;10.35;68.30
53011;BME280;42803;55.762;38.084;2023-04-25T01:45:17;99308.75;;;10.28;68.49
53011;BME280;42803;55.762;38.084;2023-04-25T01:47:46;99313.22;;;10.07;71.22
53011;BME280;42803;55.762;38.084;2023-04-25T01:50:17;99312.56;;;9.76;73.91
53011;BME280;42803;55.762;38.084;2023-04-25T01:52:49;99326.13;;;9.38;74.37
53011;BME280;42803;55.762;38.084;2023-04-25T01:55:19;99334.91;;;9.07;74.67
53011;BME280;42803;55.762;38.084;2023-04-25T01:57:57;99342.81;;;8.86;79.55
53011;BME280;42803;55.762;38.084;2023-04-25T02:00:39;99341.53;;;8.81;80.74
53011;BME280;42803;55.762;38.084;2023-04-25T02:03:08;99351.94;;;8.81;79.71
53011;BME280;42803;55.762;38.084;2023-04-25T02:05:38;99350.13;;;8.80;79.98
53011;BME280;42803;55.762;38.084;2023-04-25T02:08:12;99342.22;;;8.78;79.81
53011;BME280;42803;55.762;38.084;2023-04-25T02:10:41;99347.25;;;8.87;80.38
53011;BME280;42803;55.762;38.084;2023-04-25T02:13:15;99350.34;;;8.93;79.89
53011;BME280;42803;55.762;38.084;2023-04-25T02:16:10;99345.16;;;8.93;80.71
53011;BME280;42803;55.762;38.084;2023-04-25T02:18:40;99352.97;;;8.83;82.94
53011;BME280;42803;55.762;38.084;2023-04-25T02:21:10;99349.66;;;8.74;84.40
53011;BME280;42803;55.762;38.084;2023-04-25T02:23:40;99343.66;;;8.75;85.77
53011;BME280;42803;55.762;38.084;2023-04-25T02:26:09;99333.97;;;8.84;84.46
53011;BME280;42803;55.762;38.084;2023-04-25T02:28:38;99336.25;;;9.01;83.62
53011;BME280;42803;55.762;38.084;2023-04-25T02:31:07;99333.09;;;9.49;81.28
53011;BME280;42803;55.762;38.084;2023-04-25T02:33:36;99345.06;;;10.03;77.62
53011;BME280;42803;55.762;38.084;2023-04-25T02:36:06;99341.22;;;10.10;77.13
53011;BME280;42803;55.762;38.084;2023-04-25T02:38:35;99342.44;;;10.25;75.85
53011;BME280;42803;55.762;38.084;2023-04-25T02:41:06;99340.06;;;10.28;74.97
53011;BME280;42803;55.762;38.084;2023-04-25T02:43:35;99343.56;;;10.29;75.24
53011;BME280;42803;55.762;38.084;2023-04-25T02:46:04;99347.00;;;10.39;75.34
53011;BME280;42803;55.762;38.084;2023-04-25T02:48:33;99345.53;;;10.55;74.76
53011;BME280;42803;55.762;38.084;2023-04-25T02:51:02;99343.38;;;10.72;74.23
53011;BME280;42803;55.762;38.084;2023-04-25T02:53:32;99350.84;;;10.91;73.93
53011;BME280;42803;55.762;38.084;2023-04-25T02:56:01;99350.13;;;11.06;72.89
53011;BME280;42803;55.762;38.084;2023-04-25T02:58:32;99351.00;;;11.18;71.85
53011;BME280;42803;55.762;38.084;2023-04-25T03:01:01;99351.44;;;11.36;71.33
53011;BME280;42803;55.762;38.084;2023-04-25T03:03:31;99348.19;;;11.52;70.14
53011;BME280;42803;55.762;38.084;2023-04-25T03:06:00;99350.22;;;11.56;69.80
53011;BME280;42803;55.762;38.084;2023-04-25T03:08:32;99353.50;;;11.65;69.63
53011;BME280;42803;55.762;38.084;2023-04-25T03:11:02;99358.00;;;11.79;68.85
53011;BME280;42803;55.762;38.084;2023-04-25T03:13:33;99356.84;;;11.87;68.14
53011;BME280;42803;55.762;38.084;2023-04-25T03:16:02;99358.28;;;11.95;68.02
53011;BME280;42803;55.762;38.084;2023-04-25T03:18:31;99351.66;;;12.01;68.31
53011;BME280;42803;55.762;38.084;2023-04-25T03:21:00;99357.25;;;12.18;67.10
53011;BME280;42803;55.762;38.084;2023-04-25T03:23:31;99354.03;;;12.23;67.12
53011;BME280;42803;55.762;38.084;2023-04-25T03:26:01;99362.28;;;12.15;67.19
53011;BME280;42803;55.762;38.084;2023-04-25T03:28:30;99367.34;;;12.26;67.39
53011;BME280;42803;55.762;38.084;2023-04-25T03:31:00;99365.63;;;12.26;67.29
53011;BME280;42803;55.762;38.084;2023-04-25T03:33:30;99373.34;;;12.25;67.15
53011;BME280;42803;55.762;38.084;2023-04-25T03:35:59;99366.84;;;12.31;67.24
53011;BME280;42803;55.762;38.084;2023-04-25T03:38:29;99364.50;;;12.23;67.14
53011;BME280;42803;55.762;38.084;2023-04-25T03:40:59;99367.03;;;12.21;67.48
53011;BME280;42803;55.762;38.084;2023-04-25T03:43:50;99367.13;;;12.36;67.27
53011;BME280;42803;55.762;38.084;2023-04-25T03:46:21;99366.66;;;12.41;67.12
53011;BME280;42803;55.762;38.084;2023-04-25T03:48:51;99365.47;;;12.50;67.20
53011;BME280;42803;55.762;38.084;2023-04-25T03:51:25;99368.50;;;12.56;66.89
53011;BME280;42803;55.762;38.084;2023-04-25T03:53:54;99360.22;;;12.63;66.91
53011;BME280;42803;55.762;38.084;2023-04-25T03:56:53;99358.97;;;12.31;67.55
53011;BME280;42803;55.762;38.084;2023-04-25T03:59:25;99358.53;;;12.12;68.90
53011;BME280;42803;55.762;38.084;2023-04-25T04:01:56;99356.59;;;12.09;69.10
53011;BME280;42803;55.762;38.084;2023-04-25T04:04:26;99357.31;;;12.07;69.11
53011;BME280;42803;55.762;38.084;2023-04-25T04:06:56;99358.91;;;12.05;69.96
53011;BME280;42803;55.762;38.084;2023-04-25T04:09:47;99358.75;;;12.15;69.98
53011;BME280;42803;55.762;38.084;2023-04-25T04:12:25;99358.47;;;12.24;69.59
53011;BME280;42803;55.762;38.084;2023-04-25T04:14:54;99363.75;;;12.37;69.08
53011;BME280;42803;55.762;38.084;2023-04-25T04:17:25;99361.22;;;12.38;69.41
53011;BME280;42803;55.762;38.084;2023-04-25T04:19:54;99362.47;;;12.57;68.85
53011;BME280;42803;55.762;38.084;2023-04-25T04:22:24;99353.19;;;12.49;68.78
53011;BME280;42803;55.762;38.084;2023-04-25T04:24:57;99355.41;;;12.56;69.34
53011;BME280;42803;55.762;38.084;2023-04-25T04:27:55;99362.66;;;12.73;68.91
53011;BME280;42803;55.762;38.084;2023-04-25T04:30:34;99357.44;;;12.86;68.28
53011;BME280;42803;55.762;38.084;2023-04-25T04:33:09;99358.03;;;12.96;68.02
53011;BME280;42803;55.762;38.084;2023-04-25T04:35:40;99347.06;;;13.01;67.32
53011;BME280;42803;55.762;38.084;2023-04-25T04:38:10;99354.41;;;13.07;67.55
53011;BME280;42803;55.762;38.084;2023-04-25T04:40:41;99347.72;;;13.12;67.42
53011;BME280;42803;55.762;38.084;2023-04-25T04:43:18;99356.59;;;13.14;66.77
53011;BME280;42803;55.762;38.084;2023-04-25T04:45:53;99349.25;;;13.22;66.37
53011;BME280;42803;55.762;38.084;2023-04-25T04:48:35;99350.47;;;13.27;66.71
53011;BME280;42803;55.762;38.084;2023-04-25T04:51:36;99344.03;;;13.50;65.88
53011;BME280;42803;55.762;38.084;2023-04-25T04:54:25;99339.81;;;13.52;65.41
53011;BME280;42803;55.762;38.084;2023-04-25T04:57:11;99345.75;;;13.62;65.01
53011;BME280;42803;55.762;38.084;2023-04-25T05:00:04;99342.81;;;13.58;64.91
53011;BME280;42803;55.762;38.084;2023-04-25T05:02:56;99351.56;;;13.72;65.11
53011;BME280;42803;55.762;38.084;2023-04-25T05:05:42;99341.84;;;13.99;64.77
53011;BME280;42803;55.762;38.084;2023-04-25T05:08:11;99339.69;;;14.21;63.82
53011;BME280;42803;55.762;38.084;2023-04-25T05:10:51;99333.00;;;14.41;63.06
53011;BME280;42803;55.762;38.084;2023-04-25T05:13:39;99333.47;;;14.49;62.30
53011;BME280;42803;55.762;38.084;2023-04-25T05:16:27;99328.41;;;14.67;61.99
53011;BME280;42803;55.762;38.084;2023-04-25T05:19:12;99337.44;;;14.86;61.13
53011;BME280;42803;55.762;38.084;2023-04-25T05:21:49;99344.69;;;15.22;60.18
53011;BME280;42803;55.762;38.084;2023-04-25T05:24:47;99350.34;;;15.60;58.77
53011;BME280;42803;55.762;38.084;2023-04-25T05:27:38;99352.13;;;15.76;58.01
53011;BME280;42803;55.762;38.084;2023-04-25T05:30:37;99343.53;;;15.64;57.96
53011;BME280;42803;55.762;38.084;2023-04-25T05:33:14;99350.34;;;15.60;58.21
53011;BME280;42803;55.762;38.084;2023-04-25T05:35:46;99349.38;;;15.58;58.30
53011;BME280;42803;55.762;38.084;2023-04-25T05:38:17;99348.63;;;15.61;57.43
53011;BME280;42803;55.762;38.084;2023-04-25T05:41:09;99341.09;;;15.67;57.62
53011;BME280;42803;55.762;38.084;2023-04-25T05:43:41;99333.31;;;15.69;57.48
53011;BME280;42803;55.762;38.084;2023-04-25T05:46:28;99326.59;;;15.59;57.68
53011;BME280;42803;55.762;38.084;2023-04-25T05:49:34;99326.56;;;15.74;57.77
53011;BME280;42803;55.762;38.084;2023-04-25T05:52:20;99323.97;;;16.08;57.06
53011;BME280;42803;55.762;38.084;2023-04-25T05:55:05;99312.19;;;16.18;56.57
53011;BME280;42803;55.762;38.084;2023-04-25T05:57:34;99313.19;;;16.20;56.06
53011;BME280;42803;55.762;38.084;2023-04-25T06:00:08;99319.19;;;16.17;56.16
53011;BME280;42803;55.762;38.084;2023-04-25T06:02:41;99316.53;;;16.17;55.66
53011;BME280;42803;55.762;38.084;2023-04-25T06:05:13;99312.72;;;16.11;55.87
53011;BME280;42803;55.762;38.084;2023-04-25T06:07:43;99308.81;;;16.20;55.68
53011;BME280;42803;55.762;38.084;2023-04-25T06:10:14;99308.06;;;16.23;54.85
53011;BME280;42803;55.762;38.084;2023-04-25T06:12:43;99293.50;;;16.29;54.80
53011;BME280;42803;55.762;38.084;2023-04-25T06:15:15;99289.34;;;16.35;54.79
53011;BME280;42803;55.762;38.084;2023-04-25T06:17:55;99296.66;;;16.40;54.69
53011;BME280;42803;55.762;38.084;2023-04-25T06:20:24;99286.81;;;16.54;54.22
53011;BME280;42803;55.762;38.084;2023-04-25T06:25:52;99279.06;;;16.57;53.26
53011;BME280;42803;55.762;38.084;2023-04-25T06:28:40;99282.25;;;16.68;53.25
53011;BME280;42803;55.762;38.084;2023-04-25T06:31:09;99289.19;;;16.84;53.06
53011;BME280;42803;55.762;38.084;2023-04-25T06:33:40;99289.31;;;17.04;52.53
53011;BME280;42803;55.762;38.084;2023-04-25T06:36:09;99288.63;;;17.09;51.90
53011;BME280;42803;55.762;38.084;2023-04-25T06:38:39;99286.88;;;17.09;51.72
53011;BME280;42803;55.762;38.084;2023-04-25T06:41:10;99287.13;;;17.14;51.65
53011;BME280;42803;55.762;38.084;2023-04-25T06:43:39;99283.84;;;17.37;51.25
53011;BME280;42803;55.762;38.084;2023-04-25T06:46:16;99287.59;;;17.62;50.34
53011;BME280;42803;55.762;38.084;2023-04-25T06:48:47;99289.19;;;17.58;49.58
53011;BME280;42803;55.762;38.084;2023-04-25T06:51:18;99292.13;;;17.45;50.40
53011;BME280;42803;55.762;38.084;2023-04-25T06:53:54;99285.75;;;17.59;50.56
53011;BME280;42803;55.762;38.084;2023-04-25T06:56:31;99295.81;;;17.68;50.16
53011;BME280;42803;55.762;38.084;2023-04-25T06:59:08;99292.53;;;17.73;49.00
53011;BME280;42803;55.762;38.084;2023-04-25T07:01:39;99292.72;;;17.76;48.55
53011;BME280;42803;55.762;38.084;2023-04-25T07:04:16;99294.25;;;17.91;48.26
53011;BME280;42803;55.762;38.084;2023-04-25T07:06:52;99296.84;;;18.10;47.85
53011;BME280;42803;55.762;38.084;2023-04-25T07:09:30;99291.03;;;17.98;48.42
53011;BME280;42803;55.762;38.084;2023-04-25T07:12:03;99287.84;;;18.05;48.22
53011;BME280;42803;55.762;38.084;2023-04-25T07:14:34;99286.00;;;18.04;48.23
53011;BME280;42803;55.762;38.084;2023-04-25T07:17:04;99290.66;;;18.10;48.14
53011;BME280;42803;55.762;38.084;2023-04-25T07:19:35;99291.53;;;18.30;48.06
53011;BME280;42803;55.762;38.084;2023-04-25T07:22:08;99288.13;;;18.32;48.03
53011;BME280;42803;55.762;38.084;2023-04-25T07:24:40;99288.78;;;18.47;47.63
53011;BME280;42803;55.762;38.084;2023-04-25T07:27:14;99290.91;;;18.56;47.54
53011;BME280;42803;55.762;38.084;2023-04-25T07:29:51;99286.56;;;18.58;47.38
53011;BME280;42803;55.762;38.084;2023-04-25T07:32:22;99293.81;;;18.62;46.88
53011;BME280;42803;55.762;38.084;2023-04-25T07:34:52;99291.25;;;18.23;47.17
53011;BME280;42803;55.762;38.084;2023-04-25T07:37:21;99290.19;;;18.39;47.44
53011;BME280;42803;55.762;38.084;2023-04-25T07:40:13;99279.94;;;18.47;47.08
53011;BME280;42803;55.762;38.084;2023-04-25T07:42:48;99284.38;;;18.69;47.33
53011;BME280;42803;55.762;38.084;2023-04-25T07:45:24;99287.25;;;18.54;47.15
53011;BME280;42803;55.762;38.084;2023-04-25T07:47:54;99293.19;;;18.27;47.80
53011;BME280;42803;55.762;38.084;2023-04-25T07:50:24;99290.06;;;18.36;47.94
53011;BME280;42803;55.762;38.084;2023-04-25T07:52:53;99293.13;;;18.68;46.86
53011;BME280;42803;55.762;38.084;2023-04-25T07:55:28;99283.91;;;18.78;45.68
53011;BME280;42803;55.762;38.084;2023-04-25T07:58:08;99293.66;;;19.01;45.55
53011;BME280;42803;55.762;38.084;2023-04-25T08:00:40;99284.44;;;19.59;45.16
53011;BME280;42803;55.762;38.084;2023-04-25T08:03:26;99281.66;;;19.78;44.42
53011;BME280;42803;55.762;38.084;2023-04-25T08:05:57;99285.88;;;19.97;43.88
53011;BME280;42803;55.762;38.084;2023-04-25T08:08:30;99286.63;;;19.93;43.46
53011;BME280;42803;55.762;38.084;2023-04-25T08:10:59;99294.56;;;19.46;44.03
53011;BME280;42803;55.762;38.084;2023-04-25T08:13:30;99293.00;;;19.07;44.69
53011;BME280;42803;55.762;38.084;2023-04-25T08:15:59;99284.03;;;19.48;44.71
53011;BME280;42803;55.762;38.084;2023-04-25T08:18:29;99279.16;;;19.83;43.24
53011;BME280;42803;55.762;38.084;2023-04-25T08:20:59;99273.66;;;20.01;42.19
53011;BME280;42803;55.762;38.084;2023-04-25T08:23:28;99285.47;;;20.10;42.39
53011;BME280;42803;55.762;38.084;2023-04-25T08:26:10;99280.97;;;20.08;42.70
53011;BME280;42803;55.762;38.084;2023-04-25T08:28:43;99274.03;;;18.96;44.15
53011;BME280;42803;55.762;38.084;2023-04-25T08:31:12;99267.00;;;19.19;44.44
53011;BME280;42803;55.762;38.084;2023-04-25T08:33:55;99263.69;;;19.69;43.90
53011;BME280;42803;55.762;38.084;2023-04-25T08:36:45;99260.94;;;19.66;43.60
53011;BME280;42803;55.762;38.084;2023-04-25T08:39:29;99252.97;;;19.66;43.20
53011;BME280;42803;55.762;38.084;2023-04-25T08:42:22;99245.81;;;19.64;43.08
53011;BME280;42803;55.762;38.084;2023-04-25T08:44:54;99252.69;;;19.83;43.10
53011;BME280;42803;55.762;38.084;2023-04-25T08:47:33;99244.66;;;20.05;42.42
53011;BME280;42803;55.762;38.084;2023-04-25T08:50:04;99248.88;;;19.75;42.89
53011;BME280;42803;55.762;38.084;2023-04-25T08:52:36;99251.41;;;19.49;43.35
53011;BME280;42803;55.762;38.084;2023-04-25T08:55:09;99252.53;;;19.56;44.32
53011;BME280;42803;55.762;38.084;2023-04-25T08:57:40;99236.06;;;19.87;43.67
53011;BME280;42803;55.762;38.084;2023-04-25T09:00:13;99238.69;;;19.87;43.19
53011;BME280;42803;55.762;38.084;2023-04-25T09:02:45;99231.19;;;19.99;43.04
53011;BME280;42803;55.762;38.084;2023-04-25T09:05:15;99231.09;;;20.21;42.27
53011;BME280;42803;55.762;38.084;2023-04-25T09:07:51;99224.56;;;20.63;41.65
53011;BME280;42803;55.762;38.084;2023-04-25T09:10:20;99217.72;;;20.98;40.90
53011;BME280;42803;55.762;38.084;2023-04-25T09:13:02;99211.63;;;21.31;40.74
53011;BME280;42803;55.762;38.084;2023-04-25T09:15:52;99223.78;;;20.94;40.46
53011;BME280;42803;55.762;38.084;2023-04-25T09:18:47;99222.91;;;20.66;39.10
53011;BME280;42803;55.762;38.084;2023-04-25T09:21:22;99220.66;;;20.52;38.67
53011;BME280;42803;55.762;38.084;2023-04-25T09:23:51;99210.22;;;20.85;39.16
53011;BME280;42803;55.762;38.084;2023-04-25T09:26:21;99203.78;;;21.05;38.86
53011;BME280;42803;55.762;38.084;2023-04-25T09:29:04;99207.13;;;21.88;37.69
53011;BME280;42803;55.762;38.084;2023-04-25T09:31:37;99201.75;;;22.19;35.99
53011;BME280;42803;55.762;38.084;2023-04-25T09:34:08;99204.06;;;22.06;35.73
53011;BME280;42803;55.762;38.084;2023-04-25T09:36:47;99199.53;;;22.02;35.76
53011;BME280;42803;55.762;38.084;2023-04-25T09:39:32;99202.94;;;21.35;36.02
53011;BME280;42803;55.762;38.084;2023-04-25T09:42:11;99210.44;;;20.91;36.88
53011;BME280;42803;55.762;38.084;2023-04-25T09:44:42;99207.44;;;20.28;37.94
53011;BME280;42803;55.762;38.084;2023-04-25T09:47:15;99207.22;;;20.47;38.29
53011;BME280;42803;55.762;38.084;2023-04-25T09:49:46;99185.97;;;21.01;37.57
53011;BME280;42803;55.762;38.084;2023-04-25T09:52:16;99186.31;;;21.13;37.42
53011;BME280;42803;55.762;38.084;2023-04-25T09:54:56;99193.00;;;21.59;37.28
53011;BME280;42803;55.762;38.084;2023-04-25T09:57:31;99187.69;;;21.91;37.08
53011;BME280;42803;55.762;38.084;2023-04-25T10:00:01;99197.03;;;21.77;37.67
53011;BME280;42803;55.762;38.084;2023-04-25T10:02:47;99197.03;;;21.77;38.11
53011;BME280;42803;55.762;38.084;2023-04-25T10:05:37;99193.44;;;21.75;37.50
53011;BME280;42803;55.762;38.084;2023-04-25T10:08:06;99187.34;;;21.47;37.58
53011;BME280;42803;55.762;38.084;2023-04-25T10:10:36;99186.34;;;21.42;38.11
53011;BME280;42803;55.762;38.084;2023-04-25T10:13:06;99184.72;;;21.18;38.06
53011;BME280;42803;55.762;38.084;2023-04-25T10:15:35;99191.00;;;20.92;38.53
53011;BME280;42803;55.762;38.084;2023-04-25T10:18:08;99184.97;;;20.16;39.37
53011;BME280;42803;55.762;38.084;2023-04-25T10:20:38;99185.72;;;20.38;39.91
53011;BME280;42803;55.762;38.084;2023-04-25T10:23:12;99181.59;;;20.20;39.64
53011;BME280;42803;55.762;38.084;2023-04-25T10:25:42;99173.75;;;19.98;40.11
53011;BME280;42803;55.762;38.084;2023-04-25T10:28:11;99175.59;;;19.75;40.73
53011;BME280;42803;55.762;38.084;2023-04-25T10:30:58;99170.72;;;20.13;40.23
53011;BME280;42803;55.762;38.084;2023-04-25T10:33:32;99167.47;;;20.76;39.44
53011;BME280;42803;55.762;38.084;2023-04-25T10:36:09;99159.31;;;21.27;38.80
53011;BME280;42803;55.762;38.084;2023-04-25T10:38:39;99158.41;;;21.56;37.68
53011;BME280;42803;55.762;38.084;2023-04-25T10:41:10;99164.72;;;21.60;38.04
53011;BME280;42803;55.762;38.084;2023-04-25T10:43:41;99151.38;;;21.58;37.63
53011;BME280;42803;55.762;38.084;2023-04-25T10:46:14;99152.69;;;21.12;38.00
53011;BME280;42803;55.762;38.084;2023-04-25T10:48:47;99148.38;;;21.46;37.73
53011;BME280;42803;55.762;38.084;2023-04-25T10:51:20;99143.41;;;21.92;37.14
53011;BME280;42803;55.762;38.084;2023-04-25T10:53:57;99143.63;;;22.34;37.18
53011;BME280;42803;55.762;38.084;2023-04-25T10:56:28;99142.84;;;22.38;36.31
53011;BME280;42803;55.762;38.084;2023-04-25T10:59:08;99142.94;;;22.43;37.46
53011;BME280;42803;55.762;38.084;2023-04-25T11:01:40;99132.38;;;22.83;36.53
53011;BME280;42803;55.762;38.084;2023-04-25T11:04:30;99136.88;;;22.86;36.82
53011;BME280;42803;55.762;38.084;2023-04-25T11:07:10;99134.38;;;22.92;36.62
53011;BME280;42803;55.762;38.084;2023-04-25T11:09:44;99131.94;;;22.65;37.14
53011;BME280;42803;55.762;38.084;2023-04-25T11:12:14;99127.75;;;22.37;37.48
53011;BME280;42803;55.762;38.084;2023-04-25T11:14:44;99117.84;;;21.63;37.93
53011;BME280;42803;55.762;38.084;2023-04-25T11:17:13;99117.59;;;21.53;38.65
53011;BME280;42803;55.762;38.084;2023-04-25T11:19:49;99115.44;;;21.39;38.94
53011;BME280;42803;55.762;38.084;2023-04-25T11:22:21;99114.19;;;21.27;39.12
53011;BME280;42803;55.762;38.084;2023-04-25T11:24:50;99111.66;;;21.01;39.04
53011;BME280;42803;55.762;38.084;2023-04-25T11:27:20;99110.84;;;20.74;39.97
53011;BME280;42803;55.762;38.084;2023-04-25T11:29:50;99106.88;;;20.59;40.06
53011;BME280;42803;55.762;38.084;2023-04-25T11:32:21;99105.66;;;20.77;40.12
53011;BME280;42803;55.762;38.084;2023-04-25T11:34:59;99101.94;;;21.02;39.69
53011;BME280;42803;55.762;38.084;2023-04-25T11:37:30;99093.94;;;21.00;39.80
53011;BME280;42803;55.762;38.084;2023-04-25T11:39:59;99086.66;;;20.93;39.93
53011;BME280;42803;55.762;38.084;2023-04-25T11:42:30;99081.88;;;20.80;40.12
53011;BME280;42803;55.762;38.084;2023-04-25T11:44:59;99084.22;;;20.71;40.69
53011;BME280;42803;55.762;38.084;2023-04-25T11:47:32;99079.22;;;20.80;40.59
53011;BME280;42803;55.762;38.084;2023-04-25T11:50:04;99073.97;;;20.83;40.99
53011;BME280;42803;55.762;38.084;2023-04-25T11:52:38;99083.25;;;20.97;40.25
53011;BME280;42803;55.762;38.084;2023-04-25T11:55:09;99082.25;;;20.63;40.08
53011;BME280;42803;55.762;38.084;2023-04-25T11:57:39;99075.81;;;20.55;40.29
53011;BME280;42803;55.762;38.084;2023-04-25T12:00:12;99075.59;;;20.78;40.42
53011;BME280;42803;55.762;38.084;2023-04-25T12:02:47;99072.47;;;20.91;40.00
53011;BME280;42803;55.762;38.084;2023-04-25T12:05:18;99067.22;;;20.94;39.78
53011;BME280;42803;55.762;38.084;2023-04-25T12:08:12;99066.41;;;20.95;38.86
53011;BME280;42803;55.762;38.084;2023-04-25T12:10:43;99063.47;;;21.17;39.00
53011;BME280;42803;55.762;38.084;2023-04-25T12:13:21;99050.13;;;21.14;39.18
53011;BME280;42803;55.762;38.084;2023-04-25T12:15:50;99054.59;;;21.17;39.71
53011;BME280;42803;55.762;38.084;2023-04-25T12:18:20;99050.94;;;21.12;39.70
53011;BME280;42803;55.762;38.084;2023-04-25T12:20:52;99049.63;;;20.96;39.51
53011;BME280;42803;55.762;38.084;2023-04-25T12:23:25;99040.78;;;20.97;39.16
53011;BME280;42803;55.762;38.084;2023-04-25T12:25:56;99032.03;;;21.00;38.81
53011;BME280;42803;55.762;38.084;2023-04-25T12:28:25;99033.09;;;21.06;38.59
53011;BME280;42803;55.762;38.084;2023-04-25T12:30:57;99032.53;;;20.86;39.04
53011;BME280;42803;55.762;38.084;2023-04-25T12:33:28;99015.28;;;20.71;39.34
53011;BME280;42803;55.762;38.084;2023-04-25T12:36:00;99018.94;;;20.76;39.17
53011;BME280;42803;55.762;38.084;2023-04-25T12:38:37;99019.13;;;20.82;38.59
53011;BME280;42803;55.762;38.084;2023-04-25T12:41:07;99014.16;;;20.94;38.35
53011;BME280;42803;55.762;38.084;2023-04-25T12:43:36;99005.84;;;20.80;38.70
53011;BME280;42803;55.762;38.084;2023-04-25T12:46:05;99000.53;;;21.13;38.57
53011;BME280;42803;55.762;38.084;2023-04-25T12:48:34;98993.94;;;21.31;38.24
53011;BME280;42803;55.762;38.084;2023-04-25T12:51:08;98992.75;;;21.20;38.21
53011;BME280;42803;55.762;38.084;2023-04-25T12:53:37;98997.38;;;21.27;37.85
53011;BME280;42803;55.762;38.084;2023-04-25T12:56:08;98982.78;;;21.42;38.18
53011;BME280;42803;55.762;38.084;2023-04-25T12:58:37;98984.47;;;21.40;38.12
53011;BME280;42803;55.762;38.084;2023-04-25T13:01:07;98980.22;;;21.47;38.53
53011;BME280;42803;55.762;38.084;2023-04-25T13:03:36;98967.31;;;21.28;38.46
53011;BME280;42803;55.762;38.084;2023-04-25T13:06:07;98963.88;;;21.32;38.35
53011;BME280;42803;55.762;38.084;2023-04-25T13:08:36;98956.78;;;21.31;38.47
53011;BME280;42803;55.762;38.084;2023-04-25T13:11:05;98956.50;;;21.53;38.28
53011;BME280;42803;55.762;38.084;2023-04-25T13:13:35;98952.59;;;21.39;38.56
53011;BME280;42803;55.762;38.084;2023-04-25T13:16:05;98945.88;;;21.53;37.53
53011;BME280;42803;55.762;38.084;2023-04-25T13:18:35;98944.91;;;21.51;38.02
53011;BME280;42803;55.762;38.084;2023-04-25T13:21:04;98941.56;;;21.58;37.56
53011;BME280;42803;55.762;38.084;2023-04-25T13:23:35;98936.16;;;21.55;37.62
53011;BME280;42803;55.762;38.084;2023-04-25T13:26:04;98929.16;;;21.57;37.46